createdAt,value
2023-02-27T00:02:06.925Z,8.80
2023-02-27T00:04:42.475Z,8.80
2023-02-27T00:07:11.003Z,8.80
2023-02-27T00:09:50.448Z,8.80
2023-02-27T00:12:23.753Z,8.80
2023-02-27T00:14:54.068Z,8.80
2023-02-27T00:17:28.739Z,8.70
2023-02-27T00:20:01.285Z,8.70
2023-02-27T00:22:32.415Z,8.70
2023-02-27T00:25:00.985Z,8.70
2023-02-27T00:27:34.798Z,8.70
2023-02-27T00:30:12.132Z,8.80
2023-02-27T00:32:40.691Z,8.80
2023-02-27T00:35:15.956Z,8.80
2023-02-27T00:37:52.471Z,8.80
2023-02-27T00:40:26.535Z,8.80
2023-02-27T00:42:55.939Z,8.80
2023-02-27T00:45:26.736Z,8.70
2023-02-27T00:47:55.355Z,8.70
2023-02-27T00:50:25.638Z,8.60
2023-02-27T00:53:06.063Z,8.60
2023-02-27T00:55:37.408Z,8.70
2023-02-27T00:58:11.058Z,8.70
2023-02-27T01:00:39.642Z,8.70
2023-02-27T01:03:27.982Z,8.70
2023-02-27T01:06:09.587Z,8.70
2023-02-27T01:08:40.501Z,8.80
2023-02-27T01:11:09.086Z,8.80
2023-02-27T01:13:44.440Z,8.80
2023-02-27T01:16:18.824Z,8.70
2023-02-27T01:18:51.109Z,8.70
2023-02-27T01:21:23.919Z,8.60
2023-02-27T01:23:55.157Z,8.50
2023-02-27T01:26:26.538Z,8.60
2023-02-27T01:28:57.647Z,8.50
2023-02-27T01:31:35.364Z,8.60
2023-02-27T01:34:05.745Z,8.60
2023-02-27T01:36:35.658Z,8.70
2023-02-27T01:39:11.265Z,8.70
2023-02-27T01:41:45.413Z,8.70
2023-02-27T01:44:16.610Z,8.70
2023-02-27T01:46:54.772Z,8.70
2023-02-27T01:49:24.476Z,8.70
2023-02-27T01:52:02.140Z,8.70
2023-02-27T01:54:31.530Z,8.60
2023-02-27T01:57:10.924Z,8.50
2023-02-27T01:59:47.342Z,8.60
2023-02-27T02:02:23.017Z,8.60
2023-02-27T02:04:53.416Z,8.60
2023-02-27T02:07:26.631Z,8.60
2023-02-27T02:10:02.125Z,8.70
2023-02-27T02:12:34.193Z,8.70
2023-02-27T02:15:02.704Z,8.70
2023-02-27T02:17:36.761Z,8.70
2023-02-27T02:20:37.324Z,8.70
2023-02-27T02:23:46.132Z,8.60
2023-02-27T02:26:33.231Z,8.50
2023-02-27T02:29:45.392Z,8.50
2023-02-27T02:32:51.507Z,8.50
2023-02-27T02:35:46.044Z,8.60
2023-02-27T02:38:56.962Z,8.60
2023-02-27T02:41:29.794Z,8.60
2023-02-27T02:44:08.120Z,8.60
2023-02-27T02:46:50.191Z,8.70
2023-02-27T02:49:25.860Z,8.70
2023-02-27T02:51:57.688Z,8.60
2023-02-27T02:54:36.384Z,8.50
2023-02-27T02:57:13.605Z,8.50
2023-02-27T02:59:45.736Z,8.40
2023-02-27T03:02:18.724Z,8.50
2023-02-27T03:04:54.981Z,8.50
2023-02-27T03:10:08.011Z,8.60
2023-02-27T03:12:41.203Z,8.60
2023-02-27T03:15:24.813Z,8.60
2023-02-27T03:18:01.253Z,8.60
2023-02-27T03:20:32.236Z,8.60
2023-02-27T03:23:07.735Z,8.60
2023-02-27T03:25:37.704Z,8.50
2023-02-27T03:28:07.460Z,8.40
2023-02-27T03:30:37.250Z,8.40
2023-02-27T03:35:45.317Z,8.30
2023-02-27T03:38:19.111Z,8.40
2023-02-27T03:41:01.628Z,8.40
2023-02-27T03:43:32.573Z,8.40
2023-02-27T03:46:03.038Z,8.40
2023-02-27T03:48:35.248Z,8.50
2023-02-27T03:51:03.947Z,8.50
2023-02-27T03:53:41.540Z,8.50
2023-02-27T03:56:12.987Z,8.50
2023-02-27T03:58:44.709Z,8.40
2023-02-27T04:01:15.628Z,8.40
2023-02-27T04:03:46.899Z,8.30
2023-02-27T04:06:32.516Z,8.30
2023-02-27T04:09:03.122Z,8.40
2023-02-27T04:11:44.215Z,8.40
2023-02-27T04:14:23.387Z,8.40
2023-02-27T04:17:02.886Z,8.50
2023-02-27T04:19:40.948Z,8.50
2023-02-27T04:22:15.210Z,8.50
2023-02-27T04:24:48.030Z,8.50
2023-02-27T04:27:20.667Z,8.50
2023-02-27T04:29:52.790Z,8.40
2023-02-27T04:32:25.578Z,8.40
2023-02-27T04:34:56.219Z,8.30
2023-02-27T04:37:25.932Z,8.30
2023-02-27T04:39:55.609Z,8.30
2023-02-27T04:42:26.038Z,8.30
2023-02-27T04:44:55.396Z,8.40
2023-02-27T04:47:23.472Z,8.40
2023-02-27T04:49:52.845Z,8.40
2023-02-27T04:52:22.476Z,8.40
2023-02-27T04:54:52.190Z,8.50
2023-02-27T04:57:21.551Z,8.40
2023-02-27T04:59:53.580Z,8.40
2023-02-27T05:02:25.068Z,8.30
2023-02-27T05:04:54.504Z,8.30
2023-02-27T05:07:27.079Z,8.20
2023-02-27T05:09:55.866Z,8.30
2023-02-27T05:12:26.178Z,8.30
2023-02-27T05:14:57.255Z,8.30
2023-02-27T05:17:28.039Z,8.30
2023-02-27T05:19:56.050Z,8.40
2023-02-27T05:22:27.298Z,8.40
2023-02-27T05:24:59.282Z,8.40
2023-02-27T05:27:32.274Z,8.40
2023-02-27T05:30:04.111Z,8.40
2023-02-27T05:32:35.414Z,8.30
2023-02-27T05:35:10.448Z,8.30
2023-02-27T05:37:40.777Z,8.20
2023-02-27T05:40:10.036Z,8.20
2023-02-27T05:42:39.594Z,8.10
2023-02-27T05:45:10.892Z,8.10
2023-02-27T05:47:40.838Z,8.20
2023-02-27T05:50:10.398Z,8.20
2023-02-27T05:52:38.424Z,8.20
2023-02-27T05:55:08.363Z,8.30
2023-02-27T05:57:38.155Z,8.30
2023-02-27T06:00:10.142Z,8.30
2023-02-27T06:02:38.221Z,8.30
2023-02-27T06:05:07.555Z,8.30
2023-02-27T06:07:35.648Z,8.20
2023-02-27T06:10:03.778Z,8.20
2023-02-27T06:12:31.846Z,8.10
2023-02-27T06:14:59.896Z,8.10
2023-02-27T06:17:29.341Z,8.10
2023-02-27T06:19:57.452Z,8.20
2023-02-27T06:22:25.562Z,8.20
2023-02-27T06:24:54.485Z,8.20
2023-02-27T06:27:22.611Z,8.30
2023-02-27T06:29:50.677Z,8.30
2023-02-27T06:32:18.813Z,8.30
2023-02-27T06:34:48.438Z,8.30
2023-02-27T06:37:16.526Z,8.20
2023-02-27T06:39:44.576Z,8.20
2023-02-27T06:42:12.615Z,8.10
2023-02-27T06:44:40.702Z,8.10
2023-02-27T06:47:08.773Z,8.10
2023-02-27T06:49:36.865Z,8.10
2023-02-27T06:52:06.286Z,8.20
2023-02-27T06:54:34.365Z,8.20
2023-02-27T06:57:02.451Z,8.20
2023-02-27T06:59:30.510Z,8.30
2023-02-27T07:01:59.202Z,8.30
2023-02-27T07:04:27.271Z,8.30
2023-02-27T07:07:35.850Z,8.30
2023-02-27T07:09:44.800Z,8.20
2023-02-27T07:12:12.838Z,8.20
2023-02-27T07:14:40.866Z,8.20
2023-02-27T07:17:08.902Z,8.20
2023-02-27T07:19:37.535Z,8.20
2023-02-27T07:22:05.593Z,8.30
2023-02-27T07:24:33.657Z,8.40
2023-02-27T07:27:03.106Z,8.40
2023-02-27T07:29:31.184Z,8.50
2023-02-27T07:31:59.246Z,8.50
2023-02-27T07:34:27.284Z,8.60
2023-02-27T07:36:55.335Z,8.70
2023-02-27T07:39:23.359Z,8.80
2023-02-27T07:41:51.415Z,8.80
2023-02-27T07:44:20.923Z,8.90
2023-02-27T07:46:49.100Z,8.90
2023-02-27T07:49:17.155Z,9.00
2023-02-27T07:51:45.374Z,9.10
2023-02-27T07:54:13.386Z,9.10
2023-02-27T07:56:41.453Z,9.20
2023-02-27T07:59:09.709Z,9.20
2023-02-27T08:01:39.096Z,9.30
2023-02-27T08:04:07.127Z,9.40
2023-02-27T08:06:35.403Z,9.40
2023-02-27T08:09:03.969Z,9.50
2023-02-27T08:11:32.007Z,9.50
2023-02-27T08:14:01.488Z,9.60
2023-02-27T08:16:30.833Z,9.60
2023-02-27T08:19:00.683Z,9.60
2023-02-27T08:21:29.293Z,9.60
2023-02-27T08:23:57.641Z,9.60
2023-02-27T08:26:26.015Z,9.70
2023-02-27T08:28:54.326Z,9.70
2023-02-27T08:31:22.363Z,9.70
2023-02-27T08:33:58.025Z,9.80
2023-02-27T08:36:37.209Z,9.80
2023-02-27T08:39:05.371Z,9.80
2023-02-27T08:41:33.452Z,9.80
2023-02-27T08:44:01.526Z,9.80
2023-02-27T08:46:29.817Z,9.80
2023-02-27T08:48:58.098Z,9.80
2023-02-27T08:51:26.512Z,9.80
2023-02-27T08:53:58.942Z,9.80
2023-02-27T08:56:27.513Z,9.80
2023-02-27T08:58:55.960Z,9.80
2023-02-27T09:01:27.305Z,9.80
2023-02-27T09:03:55.586Z,9.80
2023-02-27T09:06:25.879Z,9.80
2023-02-27T09:08:54.311Z,9.90
2023-02-27T09:11:23.965Z,9.90
2023-02-27T09:13:52.814Z,9.90
2023-02-27T09:16:20.874Z,9.90
2023-02-27T09:18:49.079Z,9.80
2023-02-27T09:21:17.427Z,9.80
2023-02-27T09:23:45.452Z,9.80
2023-02-27T09:26:13.546Z,9.80
2023-02-27T09:28:42.927Z,9.90
2023-02-27T09:31:11.194Z,9.90
2023-02-27T09:33:39.420Z,9.90
2023-02-27T09:36:08.018Z,9.90
2023-02-27T09:38:36.788Z,9.90
2023-02-27T09:41:05.310Z,9.90
2023-02-27T09:43:36.512Z,9.90
2023-02-27T09:46:06.051Z,9.90
2023-02-27T09:48:36.055Z,9.90
2023-02-27T09:51:04.306Z,9.90
2023-02-27T09:53:35.657Z,9.90
2023-02-27T09:56:07.614Z,9.80
2023-02-27T09:58:46.926Z,9.90
2023-02-27T10:01:20.273Z,9.80
2023-02-27T10:04:11.122Z,9.90
2023-02-27T10:06:41.146Z,9.90
2023-02-27T10:09:15.770Z,9.90
2023-02-27T10:11:54.551Z,9.90
2023-02-27T10:14:38.066Z,9.90
2023-02-27T10:17:11.300Z,9.90
2023-02-27T10:22:06.476Z,9.90
2023-02-27T10:24:36.786Z,9.90
2023-02-27T10:27:06.022Z,9.90
2023-02-27T10:29:36.577Z,9.80
2023-02-27T10:32:05.977Z,9.80
2023-02-27T10:34:35.597Z,9.80
2023-02-27T10:37:04.506Z,9.80
2023-02-27T10:39:33.236Z,9.80
2023-02-27T10:42:04.430Z,9.80
2023-02-27T10:44:33.342Z,9.80
2023-02-27T10:47:02.457Z,9.80
2023-02-27T10:49:32.147Z,9.80
2023-02-27T10:52:10.605Z,9.80
2023-02-27T10:54:38.686Z,9.80
2023-02-27T10:57:08.681Z,9.70
2023-02-27T10:59:37.518Z,9.60
2023-02-27T11:02:06.187Z,9.60
2023-02-27T11:04:35.139Z,9.60
2023-02-27T11:07:05.520Z,9.70
2023-02-27T11:09:35.007Z,9.70
2023-02-27T11:12:14.529Z,9.70
2023-02-27T11:14:52.794Z,9.60
2023-02-27T11:17:26.050Z,9.70
2023-02-27T11:19:54.114Z,9.70
2023-02-27T11:22:24.263Z,9.60
2023-02-27T11:24:53.981Z,9.60
2023-02-27T11:27:26.623Z,9.60
2023-02-27T11:29:59.089Z,9.60
2023-02-27T11:32:27.757Z,9.50
2023-02-27T11:34:55.939Z,9.60
2023-02-27T11:37:27.624Z,9.60
2023-02-27T11:40:02.404Z,9.60
2023-02-27T11:42:32.217Z,9.60
2023-02-27T11:45:02.199Z,9.60
2023-02-27T11:47:32.492Z,9.60
2023-02-27T11:50:28.550Z,9.60
2023-02-27T11:53:00.323Z,9.60
2023-02-27T11:55:29.754Z,9.50
2023-02-27T11:58:02.157Z,9.50
2023-02-27T12:00:33.215Z,9.50
2023-02-27T12:03:03.920Z,9.50
2023-02-27T12:05:33.100Z,9.40
2023-02-27T12:08:02.566Z,9.40
2023-02-27T12:10:33.209Z,9.50
2023-02-27T12:13:03.276Z,9.50
2023-02-27T12:15:32.645Z,9.50
2023-02-27T12:18:10.212Z,9.50
2023-02-27T12:20:40.021Z,9.50
2023-02-27T12:23:16.665Z,9.50
2023-02-27T12:25:52.628Z,9.60
2023-02-27T12:28:29.223Z,9.60
2023-02-27T12:31:05.462Z,9.60
2023-02-27T12:33:39.114Z,9.50
2023-02-27T12:36:11.189Z,9.50
2023-02-27T12:38:39.289Z,9.40
2023-02-27T12:41:23.390Z,9.50
2023-02-27T12:43:53.204Z,9.50
2023-02-27T12:46:32.991Z,9.50
2023-02-27T12:49:12.890Z,9.50
2023-02-27T12:51:45.262Z,9.50
2023-02-27T12:54:26.661Z,9.50
2023-02-27T12:57:19.864Z,9.50
2023-02-27T12:59:57.872Z,9.50
2023-02-27T13:02:42.035Z,9.50
2023-02-27T13:05:16.956Z,9.50
2023-02-27T13:07:48.737Z,9.50
2023-02-27T13:10:19.392Z,9.50
2023-02-27T13:12:51.548Z,9.50
2023-02-27T13:15:20.920Z,9.50
2023-02-27T13:17:49.725Z,9.50
2023-02-27T13:20:31.114Z,9.50
2023-02-27T13:23:02.472Z,9.50
2023-02-27T13:25:30.609Z,9.50
2023-02-27T13:28:01.528Z,9.50
2023-02-27T13:30:31.646Z,9.50
2023-02-27T13:33:02.687Z,9.50
2023-02-27T13:35:36.895Z,9.40
2023-02-27T13:38:31.695Z,9.40
2023-02-27T13:40:59.977Z,9.40
2023-02-27T13:43:46.361Z,9.40
2023-02-27T13:46:23.019Z,9.40
2023-02-27T13:48:52.291Z,9.40
2023-02-27T13:51:42.742Z,9.40
2023-02-27T13:54:20.606Z,9.50
2023-02-27T13:56:49.174Z,9.50
2023-02-27T13:59:22.220Z,9.50
2023-02-27T14:01:52.531Z,9.50
2023-02-27T14:04:20.671Z,9.40
2023-02-27T14:06:48.886Z,9.40
2023-02-27T14:09:19.982Z,9.30
2023-02-27T14:11:53.921Z,9.30
2023-02-27T14:14:45.123Z,9.30
2023-02-27T14:17:14.042Z,9.30
2023-02-27T14:19:49.440Z,9.30
2023-02-27T14:23:13.601Z,9.30
2023-02-27T14:25:43.132Z,9.30
2023-02-27T14:28:17.856Z,9.40
2023-02-27T14:30:53.167Z,9.40
2023-02-27T14:33:39.004Z,9.40
2023-02-27T14:36:09.899Z,9.40
2023-02-27T14:38:38.593Z,9.30
2023-02-27T14:41:16.100Z,9.30
2023-02-27T14:43:45.117Z,9.30
2023-02-27T14:46:19.472Z,9.20
2023-02-27T14:48:47.561Z,9.30
2023-02-27T14:51:16.949Z,9.30
2023-02-27T14:53:44.984Z,9.30
2023-02-27T14:56:19.046Z,9.30
2023-02-27T14:58:55.528Z,9.40
2023-02-27T15:01:28.700Z,9.30
2023-02-27T15:03:58.831Z,9.40
2023-02-27T15:06:31.201Z,9.30
2023-02-27T15:08:59.280Z,9.30
2023-02-27T15:11:27.645Z,9.30
2023-02-27T15:13:59.238Z,9.20
2023-02-27T15:16:35.433Z,9.20
2023-02-27T15:19:11.358Z,9.20
2023-02-27T15:21:40.600Z,9.20
2023-02-27T15:24:09.886Z,9.20
2023-02-27T15:26:39.941Z,9.30
2023-02-27T15:29:08.792Z,9.30
2023-02-27T15:31:39.129Z,9.30
2023-02-27T15:34:07.209Z,9.30
2023-02-27T15:36:35.804Z,9.30
2023-02-27T15:39:06.252Z,9.20
2023-02-27T15:41:34.461Z,9.20
2023-02-27T15:44:02.998Z,9.10
2023-02-27T15:46:31.038Z,9.10
2023-02-27T15:49:00.528Z,9.10
2023-02-27T15:51:29.347Z,9.20
2023-02-27T15:53:59.897Z,9.20
2023-02-27T15:56:29.079Z,9.20
2023-02-27T15:59:00.637Z,9.20
2023-02-27T16:01:30.742Z,9.20
2023-02-27T16:04:01.294Z,9.20
2023-02-27T16:06:31.898Z,9.20
2023-02-27T16:09:01.784Z,9.20
2023-02-27T16:11:31.204Z,9.10
2023-02-27T16:13:59.630Z,9.10
2023-02-27T16:16:31.625Z,9.00
2023-02-27T16:19:02.708Z,9.00
2023-02-27T16:21:31.608Z,9.00
2023-02-27T16:24:29.456Z,9.00
2023-02-27T16:26:57.834Z,9.00
2023-02-27T16:29:30.472Z,9.10
2023-02-27T16:31:58.802Z,9.10
2023-02-27T16:34:44.235Z,9.10
2023-02-27T16:37:19.105Z,9.10
2023-02-27T16:39:47.177Z,9.10
2023-02-27T16:42:17.472Z,9.10
2023-02-27T16:44:45.758Z,9.10
2023-02-27T16:47:13.875Z,9.00
2023-02-27T16:49:44.544Z,9.00
2023-02-27T16:52:12.802Z,8.90
2023-02-27T16:54:41.157Z,9.00
2023-02-27T16:57:10.729Z,9.00
2023-02-27T16:59:40.495Z,9.10
2023-02-27T17:02:11.998Z,9.00
2023-02-27T17:04:44.675Z,9.00
2023-02-27T17:07:16.820Z,9.10
2023-02-27T17:09:45.114Z,9.10
2023-02-27T17:12:13.447Z,9.10
2023-02-27T17:14:41.804Z,9.00
2023-02-27T17:17:11.069Z,9.00
2023-02-27T17:19:39.186Z,8.90
2023-02-27T17:22:07.761Z,8.90
2023-02-27T17:24:38.105Z,8.90
2023-02-27T17:27:07.755Z,9.00
2023-02-27T17:33:10.514Z,9.00
2023-02-27T17:35:38.665Z,9.00
2023-02-27T17:38:07.466Z,9.00
2023-02-27T17:40:39.368Z,9.00
2023-02-27T17:43:07.456Z,9.00
2023-02-27T17:45:35.494Z,8.90
2023-02-27T17:48:03.921Z,8.90
2023-02-27T17:50:32.464Z,8.90
2023-02-27T17:53:00.490Z,8.80
2023-02-27T17:55:28.588Z,8.90
2023-02-27T17:57:58.031Z,8.90
2023-02-27T18:00:26.105Z,8.90
2023-02-27T18:02:54.642Z,8.90
2023-02-27T18:05:22.794Z,8.90
2023-02-27T18:07:50.826Z,8.90
2023-02-27T18:10:19.087Z,9.00
2023-02-27T18:12:47.355Z,8.90
2023-02-27T18:15:16.982Z,8.90
2023-02-27T18:17:45.330Z,8.90
2023-02-27T18:20:13.939Z,8.80
2023-02-27T18:22:42.098Z,8.80
2023-02-27T18:25:10.550Z,8.70
2023-02-27T18:27:38.795Z,8.70
2023-02-27T18:30:07.876Z,8.70
2023-02-27T18:32:37.316Z,8.80
2023-02-27T18:35:05.882Z,8.80
2023-02-27T18:37:35.086Z,8.80
2023-02-27T18:40:03.460Z,8.80
2023-02-27T18:42:31.537Z,8.90
2023-02-27T18:44:59.608Z,8.80
2023-02-27T18:47:30.270Z,8.90
2023-02-27T18:49:59.867Z,8.90
2023-02-27T18:52:28.865Z,8.80
2023-02-27T18:54:56.911Z,8.80
2023-02-27T18:57:25.008Z,8.80
2023-02-27T18:59:53.092Z,8.70
2023-02-27T19:02:21.176Z,8.80
2023-02-27T19:04:49.515Z,8.80
2023-02-27T19:07:19.764Z,8.80
2023-02-27T19:09:48.060Z,8.80
2023-02-27T19:12:16.095Z,8.80
2023-02-27T19:14:44.141Z,8.80
2023-02-27T19:17:12.199Z,8.80
2023-02-27T19:19:40.772Z,8.90
2023-02-27T19:22:08.845Z,8.80
2023-02-27T19:24:38.257Z,8.80
2023-02-27T19:27:07.573Z,8.70
2023-02-27T19:29:35.681Z,8.70
2023-02-27T19:32:03.752Z,8.70
2023-02-27T19:34:31.931Z,8.70
2023-02-27T19:37:00.372Z,8.70
2023-02-27T19:39:28.641Z,8.80
2023-02-27T19:41:58.157Z,8.80
2023-02-27T19:44:26.573Z,8.80
2023-02-27T19:46:54.665Z,8.80
2023-02-27T19:49:22.733Z,8.80
2023-02-27T19:51:50.807Z,8.80
2023-02-27T19:54:18.898Z,8.80
2023-02-27T19:56:46.928Z,8.70
2023-02-27T19:59:17.800Z,8.60
2023-02-27T20:01:45.818Z,8.70
2023-02-27T20:04:14.086Z,8.70
2023-02-27T20:06:43.244Z,8.70
2023-02-27T20:09:13.280Z,8.70
2023-02-27T20:11:41.414Z,8.80
2023-02-27T20:14:09.475Z,8.80
2023-02-27T20:16:38.895Z,8.80
2023-02-27T20:19:07.303Z,8.80
2023-02-27T20:21:35.409Z,8.80
2023-02-27T20:24:03.517Z,8.70
2023-02-27T20:26:32.318Z,8.70
2023-02-27T20:29:01.302Z,8.70
2023-02-27T20:31:31.279Z,8.60
2023-02-27T20:34:01.328Z,8.60
2023-02-27T20:36:29.751Z,8.60
2023-02-27T20:38:58.051Z,8.60
2023-02-27T20:41:29.067Z,8.60
2023-02-27T20:43:57.780Z,8.60
2023-02-27T20:46:26.615Z,8.70
2023-02-27T20:48:56.387Z,8.70
2023-02-27T20:51:26.724Z,8.70
2023-02-27T20:53:56.259Z,8.70
2023-02-27T20:56:25.558Z,8.70
2023-02-27T20:58:53.578Z,8.70
2023-02-27T21:01:22.062Z,8.60
2023-02-27T21:03:50.965Z,8.60
2023-02-27T21:06:19.832Z,8.50
2023-02-27T21:08:51.245Z,8.60
2023-02-27T21:11:20.607Z,8.60
2023-02-27T21:13:50.059Z,8.60
2023-02-27T21:16:19.054Z,8.60
2023-02-27T21:18:50.285Z,8.70
2023-02-27T21:21:19.239Z,8.70
2023-02-27T21:23:47.264Z,8.70
2023-02-27T21:26:19.134Z,8.70
2023-02-27T21:28:52.164Z,8.70
2023-02-27T21:31:22.293Z,8.60
2023-02-27T21:33:50.603Z,8.60
2023-02-27T21:36:18.656Z,8.50
2023-02-27T21:38:47.057Z,8.50
2023-02-27T21:41:15.074Z,8.60
2023-02-27T21:43:44.471Z,8.60
2023-02-27T21:46:13.132Z,8.60
2023-02-27T21:48:41.385Z,8.60
2023-02-27T21:51:09.403Z,8.60
2023-02-27T21:53:40.442Z,8.60
2023-02-27T21:56:09.568Z,8.60
2023-02-27T21:58:37.669Z,8.70
2023-02-27T22:01:15.520Z,8.60
2023-02-27T22:03:43.676Z,8.60
2023-02-27T22:06:11.875Z,8.50
2023-02-27T22:08:40.043Z,8.50
2023-02-27T22:11:08.076Z,8.50
2023-02-27T22:13:36.225Z,8.60
2023-02-27T22:16:05.314Z,8.60
2023-02-27T22:18:34.774Z,8.60
2023-02-27T22:21:02.974Z,8.60
2023-02-27T22:23:30.982Z,8.60
2023-02-27T22:26:02.384Z,8.60
2023-02-27T22:28:30.637Z,8.60
2023-02-27T22:31:07.606Z,8.60
2023-02-27T22:33:40.630Z,8.60
2023-02-27T22:36:09.303Z,8.50
2023-02-27T22:38:37.349Z,8.50
2023-02-27T22:41:07.040Z,8.40
2023-02-27T22:43:35.095Z,8.40
2023-02-27T22:46:03.770Z,8.40
2023-02-27T22:48:31.762Z,8.40
2023-02-27T22:51:03.163Z,8.50
2023-02-27T22:53:33.077Z,8.50
2023-02-27T22:56:01.165Z,8.50
2023-02-27T22:58:29.640Z,8.50
2023-02-27T23:00:57.700Z,8.50
2023-02-27T23:03:25.735Z,8.60
2023-02-27T23:05:53.784Z,8.60
2023-02-27T23:08:23.160Z,8.50
2023-02-27T23:10:51.172Z,8.40
2023-02-27T23:13:19.217Z,8.40
2023-02-27T23:15:47.279Z,8.40
2023-02-27T23:18:15.267Z,8.40
2023-02-27T23:20:43.296Z,8.50
2023-02-27T23:23:11.300Z,8.50
2023-02-27T23:25:40.674Z,8.50
2023-02-27T23:28:08.712Z,8.50
2023-02-27T23:30:36.709Z,8.60
2023-02-27T23:33:04.752Z,8.50
2023-02-27T23:35:32.912Z,8.50
2023-02-27T23:38:00.970Z,8.50
2023-02-27T23:40:29.043Z,8.40
2023-02-27T23:43:15.649Z,8.40
2023-02-27T23:45:43.698Z,8.40
2023-02-27T23:48:11.774Z,8.40
2023-02-27T23:50:41.053Z,8.40
2023-02-27T23:53:10.405Z,8.40
2023-02-27T23:55:38.736Z,8.40
2023-02-27T23:58:08.812Z,8.50
